Time;durP1;ratioP1;P1;durP2;ratioP2;P2;SDS_P1;SDS_P2;PMS_P1;PMS_P2;Temp;Humidity;BMP_temperature;BMP_pressure;BME280_temperature;BME280_humidity;BME280_pressure;Samples;Min_cycle;Max_cycle;Signal;HPM_P1;HPM_P2
2023/03/17 00:00:09;;;;;;;11.88;5.05;;;6.40;99.90;;;;;;5104078;28;20051;-68
2023/03/17 00:02:35;;;;;;;7.45;4.60;;;6.40;99.90;;;;;;5109266;28;20043;-68
2023/03/17 00:05:01;;;;;;;7.72;5.05;;;6.40;99.90;;;;;;5109491;28;20469;-68
2023/03/17 00:07:27;;;;;;;9.10;4.90;;;6.40;99.90;;;;;;5110767;27;20039;-69
2023/03/17 00:09:53;;;;;;;8.10;5.10;;;6.40;99.90;;;;;;5106898;28;20096;-68
2023/03/17 00:12:19;;;;;;;8.30;5.18;;;6.50;99.90;;;;;;5109546;28;20043;-68
2023/03/17 00:14:45;;;;;;;9.13;5.05;;;6.50;99.90;;;;;;5102372;27;20126;-68
2023/03/17 00:17:13;;;;;;;9.70;5.22;;;6.50;99.90;;;;;;5092882;28;20085;-68
2023/03/17 00:19:41;;;;;;;8.45;4.95;;;6.50;99.90;;;;;;5095763;27;20038;-68
2023/03/17 00:22:14;;;;;;;8.93;5.40;;;6.50;99.90;;;;;;5111490;27;20043;-69
2023/03/17 00:24:39;;;;;;;7.70;4.75;;;6.50;99.90;;;;;;5102963;27;20484;-68
2023/03/17 00:27:12;;;;;;;7.80;4.82;;;6.50;99.90;;;;;;5095271;27;20126;-69
2023/03/17 00:29:39;;;;;;;8.45;5.10;;;6.60;99.90;;;;;;5096908;27;20070;-68
2023/03/17 00:32:10;;;;;;;9.60;5.25;;;6.60;99.90;;;;;;5113219;28;20493;-68
2023/03/17 00:34:36;;;;;;;8.38;4.85;;;6.60;99.90;;;;;;5099759;27;20474;-69
2023/03/17 00:37:03;;;;;;;10.68;5.20;;;6.60;99.90;;;;;;5108005;27;20134;-68
2023/03/17 00:39:28;;;;;;;7.50;4.80;;;6.60;99.90;;;;;;5102328;27;20562;-68
2023/03/17 00:41:54;;;;;;;10.77;5.30;;;6.60;99.90;;;;;;5106005;28;20048;-68
2023/03/17 00:44:20;;;;;;;10.63;5.20;;;6.60;99.90;;;;;;5110068;28;20397;-69
2023/03/17 00:46:45;;;;;;;9.52;5.80;;;6.50;99.90;;;;;;5093963;28;20039;-69
2023/03/17 00:49:18;;;;;;;9.38;5.50;;;6.50;99.90;;;;;;5107442;27;20045;-69
2023/03/17 00:51:44;;;;;;;8.57;4.82;;;6.50;99.90;;;;;;5112941;27;20039;-68
2023/03/17 00:54:11;;;;;;;9.95;5.38;;;6.50;99.90;;;;;;5116964;27;20047;-69
2023/03/17 00:56:38;;;;;;;9.90;5.20;;;6.50;99.90;;;;;;5113431;27;20047;-69
2023/03/17 00:59:11;;;;;;;7.43;5.00;;;6.50;99.90;;;;;;5106156;27;20046;-67
2023/03/17 01:01:36;;;;;;;9.77;5.25;;;6.50;99.90;;;;;;5095915;27;20168;-69
2023/03/17 01:04:03;;;;;;;9.80;5.07;;;6.60;99.90;;;;;;5115634;27;20498;-68
2023/03/17 01:06:28;;;;;;;8.02;5.07;;;6.60;99.90;;;;;;5113212;27;20118;-68
2023/03/17 01:08:54;;;;;;;10.48;5.30;;;6.60;99.90;;;;;;5117061;27;20172;-69
2023/03/17 01:11:20;;;;;;;7.65;5.38;;;6.60;99.90;;;;;;5114113;27;20074;-68
2023/03/17 01:13:45;;;;;;;7.65;5.07;;;6.60;99.90;;;;;;5116459;27;20081;-68
2023/03/17 01:16:12;;;;;;;10.32;5.22;;;6.60;99.90;;;;;;5114005;27;20050;-68
2023/03/17 01:18:38;;;;;;;9.18;5.60;;;6.60;99.90;;;;;;5114404;27;20415;-68
2023/03/17 01:21:04;;;;;;;8.07;5.50;;;6.60;99.90;;;;;;5109612;27;20082;-68
2023/03/17 01:23:30;;;;;;;8.15;5.30;;;6.60;99.90;;;;;;5097464;27;20090;-69
2023/03/17 01:25:56;;;;;;;7.15;5.40;;;6.60;99.90;;;;;;5113520;27;20035;-68
2023/03/17 01:28:24;;;;;;;8.88;5.50;;;6.60;99.90;;;;;;5107759;27;20039;-69
2023/03/17 01:30:50;;;;;;;10.15;5.40;;;6.60;99.90;;;;;;5104758;27;20063;-69
2023/03/17 01:33:15;;;;;;;9.85;5.55;;;6.60;99.90;;;;;;5097024;27;20122;-69
2023/03/17 01:35:47;;;;;;;8.43;5.28;;;6.60;99.90;;;;;;5108245;28;20486;-68
2023/03/17 01:38:13;;;;;;;8.05;5.05;;;6.60;99.90;;;;;;5096612;27;20470;-68
2023/03/17 01:40:45;;;;;;;9.93;5.38;;;6.60;99.90;;;;;;5102508;27;20131;-68
2023/03/17 01:43:11;;;;;;;9.45;5.38;;;6.60;99.90;;;;;;5114326;27;20039;-69
2023/03/17 01:46:13;;;;;;;10.45;5.07;;;6.60;99.90;;;;;;5099964;27;20367;-69
2023/03/17 01:48:43;;;;;;;10.55;5.07;;;6.60;99.90;;;;;;5115822;27;20031;-69
2023/03/17 01:51:15;;;;;;;9.13;5.28;;;6.60;99.90;;;;;;5100516;27;20051;-69
2023/03/17 01:53:42;;;;;;;9.90;5.40;;;6.60;99.90;;;;;;5103981;27;20082;-68
2023/03/17 01:56:08;;;;;;;9.02;5.00;;;6.60;99.90;;;;;;5103597;28;20050;-68
2023/03/17 01:58:34;;;;;;;9.27;5.78;;;6.60;99.90;;;;;;5119693;27;20043;-69
2023/03/17 02:01:00;;;;;;;8.20;5.32;;;6.60;99.90;;;;;;5110221;27;20043;-68
2023/03/17 02:03:28;;;;;;;12.52;5.38;;;6.60;99.90;;;;;;5114534;27;20039;-69
2023/03/17 02:05:56;;;;;;;7.95;5.05;;;6.60;99.90;;;;;;5105098;28;20051;-69
2023/03/17 02:08:21;;;;;;;9.05;5.20;;;6.60;99.90;;;;;;5117500;27;20072;-69
2023/03/17 02:10:48;;;;;;;7.75;5.32;;;6.60;99.90;;;;;;5106712;27;20434;-69
2023/03/17 02:13:15;;;;;;;8.60;4.93;;;6.60;99.90;;;;;;5115794;27;20047;-70
2023/03/17 02:15:50;;;;;;;9.18;5.10;;;6.60;99.90;;;;;;5110614;27;20042;-69
2023/03/17 02:18:19;;;;;;;10.35;5.35;;;6.60;99.90;;;;;;5115267;27;20039;-68
2023/03/17 02:20:45;;;;;;;8.98;5.35;;;6.60;99.90;;;;;;5096883;28;20032;-69
2023/03/17 02:23:11;;;;;;;7.65;5.03;;;6.60;99.90;;;;;;5109155;27;20047;-68
2023/03/17 02:25:38;;;;;;;8.25;4.88;;;6.60;99.90;;;;;;5112804;27;20496;-68
2023/03/17 02:28:09;;;;;;;8.40;5.18;;;6.60;99.90;;;;;;5104815;28;20073;-69
2023/03/17 02:30:35;;;;;;;6.87;4.83;;;6.60;99.90;;;;;;5096507;27;20050;-68
2023/03/17 02:33:02;;;;;;;7.10;4.82;;;6.60;99.90;;;;;;5114098;27;20043;-69
2023/03/17 02:35:28;;;;;;;7.78;5.10;;;6.60;99.90;;;;;;5112990;27;20043;-68
2023/03/17 02:37:53;;;;;;;7.00;4.75;;;6.60;99.90;;;;;;5106941;27;20039;-69
2023/03/17 02:40:19;;;;;;;7.80;5.47;;;6.60;99.90;;;;;;5111656;27;20070;-68
2023/03/17 02:42:45;;;;;;;7.70;4.97;;;6.60;99.90;;;;;;5113470;27;20397;-69
2023/03/17 02:45:12;;;;;;;9.07;5.00;;;6.60;99.90;;;;;;5107800;27;20048;-69
2023/03/17 02:47:38;;;;;;;9.32;4.20;;;6.60;99.90;;;;;;5106321;27;20075;-68
2023/03/17 02:50:05;;;;;;;9.27;5.03;;;6.60;99.90;;;;;;5102072;28;20043;-68
2023/03/17 02:52:30;;;;;;;9.25;5.07;;;6.60;99.90;;;;;;5127458;27;20036;-68
2023/03/17 02:54:56;;;;;;;9.10;4.93;;;6.60;99.90;;;;;;5107537;27;21277;-68
2023/03/17 02:57:22;;;;;;;10.60;5.28;;;6.60;99.90;;;;;;5109249;27;20070;-68
2023/03/17 02:59:48;;;;;;;7.93;4.75;;;6.60;99.90;;;;;;5111375;27;20044;-68
2023/03/17 03:02:13;;;;;;;10.30;5.50;;;6.60;99.90;;;;;;5107677;27;20436;-68
2023/03/17 03:04:40;;;;;;;10.30;4.85;;;6.60;99.90;;;;;;5088990;28;20031;-68
2023/03/17 03:07:06;;;;;;;7.53;4.80;;;6.60;99.90;;;;;;5093509;28;20460;-68
2023/03/17 03:09:31;;;;;;;8.65;4.60;;;6.60;99.90;;;;;;5092915;28;20122;-69
2023/03/17 03:11:57;;;;;;;9.60;4.93;;;6.60;99.90;;;;;;5100002;27;20054;-69
2023/03/17 03:14:23;;;;;;;7.68;5.05;;;6.60;99.90;;;;;;5129995;27;20130;-68
2023/03/17 03:16:48;;;;;;;8.45;4.78;;;6.60;99.90;;;;;;5111917;27;20039;-68
2023/03/17 03:19:15;;;;;;;7.72;4.32;;;6.60;99.90;;;;;;5090803;27;20115;-69
2023/03/17 03:21:40;;;;;;;8.32;4.65;;;6.60;99.90;;;;;;5093157;27;20039;-69
2023/03/17 03:24:07;;;;;;;7.07;4.60;;;6.60;99.90;;;;;;5118374;27;20051;-68
2023/03/17 03:26:33;;;;;;;8.35;5.10;;;6.60;99.90;;;;;;5107695;27;20070;-69
2023/03/17 03:28:58;;;;;;;6.35;4.80;;;6.60;99.90;;;;;;5112632;27;20479;-69
2023/03/17 03:31:24;;;;;;;8.95;5.00;;;6.60;99.90;;;;;;5112919;27;20049;-69
2023/03/17 03:33:50;;;;;;;9.23;4.60;;;6.60;99.90;;;;;;5117676;27;20043;-69
2023/03/17 03:36:16;;;;;;;8.55;4.45;;;6.60;99.90;;;;;;5079853;28;20035;-68
2023/03/17 03:38:41;;;;;;;9.10;4.63;;;6.60;99.90;;;;;;5092918;28;20047;-69
2023/03/17 03:41:07;;;;;;;9.75;4.97;;;6.60;99.90;;;;;;5098892;27;20079;-68
2023/03/17 03:43:34;;;;;;;9.00;5.00;;;6.60;99.90;;;;;;5117247;27;20047;-69
2023/03/17 03:45:59;;;;;;;7.47;4.80;;;6.60;99.90;;;;;;5111455;27;20378;-68
2023/03/17 03:48:25;;;;;;;8.85;4.80;;;6.60;99.90;;;;;;5096595;28;20035;-69
2023/03/17 03:50:58;;;;;;;9.10;5.13;;;6.60;99.90;;;;;;5110474;27;20490;-68
2023/03/17 03:53:24;;;;;;;7.68;4.78;;;6.60;99.90;;;;;;5112040;28;20035;-68
2023/03/17 03:55:50;;;;;;;7.68;4.90;;;6.60;99.90;;;;;;5110142;27;20502;-69
2023/03/17 03:58:15;;;;;;;8.52;4.65;;;6.60;99.90;;;;;;5113861;28;20176;-68
2023/03/17 04:00:41;;;;;;;7.03;4.70;;;6.60;99.90;;;;;;5108194;27;20083;-69
2023/03/17 04:03:07;;;;;;;6.55;4.45;;;6.60;99.90;;;;;;5114105;28;20035;-69
2023/03/17 04:05:32;;;;;;;6.82;4.32;;;6.50;99.90;;;;;;5093766;28;20031;-68
2023/03/17 04:07:58;;;;;;;8.32;4.60;;;6.60;99.90;;;;;;5107672;28;20039;-68
2023/03/17 04:10:23;;;;;;;6.75;4.53;;;6.60;99.90;;;;;;5112309;28;20066;-69
2023/03/17 04:12:49;;;;;;;6.72;4.50;;;6.60;99.90;;;;;;5111802;28;20035;-68
2023/03/17 04:15:17;;;;;;;8.27;5.15;;;6.60;99.90;;;;;;5106937;28;20044;-68
2023/03/17 04:17:43;;;;;;;6.70;4.22;;;6.60;99.90;;;;;;5101900;28;20051;-69
2023/03/17 04:20:10;;;;;;;7.72;5.10;;;6.50;99.90;;;;;;5112851;28;20062;-69
2023/03/17 04:22:35;;;;;;;6.70;4.35;;;6.50;99.90;;;;;;5113934;28;20031;-68
2023/03/17 04:25:01;;;;;;;7.88;4.95;;;6.50;99.90;;;;;;5114771;27;20154;-68
2023/03/17 04:27:27;;;;;;;7.57;4.72;;;6.50;99.90;;;;;;5102884;28;20058;-69
2023/03/17 04:29:53;;;;;;;7.72;4.80;;;6.50;99.90;;;;;;5111016;27;20074;-69
2023/03/17 04:32:19;;;;;;;6.50;4.55;;;6.50;99.90;;;;;;5112231;27;20073;-69
2023/03/17 04:34:44;;;;;;;8.40;4.57;;;6.50;99.90;;;;;;5117223;27;20039;-69
2023/03/17 04:37:11;;;;;;;8.95;4.85;;;6.50;99.90;;;;;;5114939;27;20071;-69
2023/03/17 04:39:36;;;;;;;8.57;4.57;;;6.50;99.90;;;;;;5111056;27;20390;-69
2023/03/17 04:42:03;;;;;;;8.30;4.55;;;6.50;99.90;;;;;;5106076;27;20042;-69
2023/03/17 04:44:29;;;;;;;7.60;4.72;;;6.50;99.90;;;;;;5106424;28;20080;-69
2023/03/17 04:46:55;;;;;;;5.88;4.18;;;6.60;99.90;;;;;;5104288;28;20126;-69
2023/03/17 04:49:21;;;;;;;7.05;4.35;;;6.50;99.90;;;;;;5095528;28;20070;-68
2023/03/17 04:51:46;;;;;;;6.47;4.60;;;6.50;99.90;;;;;;5099525;27;20485;-68
2023/03/17 04:54:12;;;;;;;8.52;4.57;;;6.50;99.90;;;;;;5107943;28;20656;-69
2023/03/17 04:56:37;;;;;;;7.63;4.60;;;6.60;99.90;;;;;;5106645;27;20123;-69
2023/03/17 04:59:03;;;;;;;9.82;5.07;;;6.60;99.90;;;;;;5113527;27;20027;-69
2023/03/17 05:01:29;;;;;;;6.15;4.40;;;6.60;99.90;;;;;;5105490;27;20032;-68
2023/03/17 05:03:55;;;;;;;7.25;4.90;;;6.60;99.90;;;;;;5110635;28;20039;-68
2023/03/17 05:06:20;;;;;;;9.13;4.88;;;6.60;99.90;;;;;;5114102;27;20035;-69
2023/03/17 05:08:46;;;;;;;6.50;4.30;;;6.60;99.90;;;;;;5112394;28;20036;-68
2023/03/17 05:11:15;;;;;;;10.98;5.00;;;6.60;99.90;;;;;;5115781;27;20441;-69
2023/03/17 05:13:40;;;;;;;8.18;4.80;;;6.70;99.90;;;;;;5111939;27;20045;-69
2023/03/17 05:16:07;;;;;;;8.40;4.78;;;6.70;99.90;;;;;;5102561;27;20035;-69
2023/03/17 05:18:32;;;;;;;6.75;4.63;;;6.60;99.90;;;;;;5099575;28;20093;-69
2023/03/17 05:20:58;;;;;;;8.00;4.82;;;6.60;99.90;;;;;;5096764;27;20035;-69
2023/03/17 05:23:24;;;;;;;9.30;4.97;;;6.60;99.90;;;;;;5084627;28;20114;-68
2023/03/17 05:25:51;;;;;;;7.50;4.70;;;6.60;99.90;;;;;;5095472;28;20062;-68
2023/03/17 05:28:18;;;;;;;9.02;4.70;;;6.60;99.90;;;;;;5097840;27;20039;-68
2023/03/17 05:30:44;;;;;;;5.97;4.35;;;6.50;99.90;;;;;;5107660;27;20043;-68
2023/03/17 05:33:10;;;;;;;10.82;5.18;;;6.50;99.90;;;;;;5097086;27;20114;-69
2023/03/17 05:35:37;;;;;;;6.85;4.85;;;6.50;99.90;;;;;;5111986;27;20442;-69
2023/03/17 05:38:03;;;;;;;9.48;4.70;;;6.50;99.90;;;;;;5111093;27;20046;-69
2023/03/17 05:40:29;;;;;;;8.68;4.90;;;6.50;99.90;;;;;;5109335;27;20398;-70
2023/03/17 05:42:54;;;;;;;8.32;4.82;;;6.50;99.90;;;;;;5112290;27;20464;-69
2023/03/17 05:45:20;;;;;;;6.57;4.25;;;6.60;99.90;;;;;;5099681;27;20039;-68
2023/03/17 05:47:46;;;;;;;7.10;4.80;;;6.60;99.90;;;;;;5101674;27;20040;-69
2023/03/17 05:50:12;;;;;;;8.93;4.90;;;6.60;99.90;;;;;;5094380;27;20405;-68
2023/03/17 05:52:38;;;;;;;10.18;4.75;;;6.60;99.90;;;;;;5112773;27;20574;-69
2023/03/17 05:55:05;;;;;;;8.35;4.97;;;6.60;99.90;;;;;;5114095;27;20054;-69
2023/03/17 05:57:30;;;;;;;8.93;4.95;;;6.60;99.90;;;;;;5119124;27;20054;-69
2023/03/17 05:59:56;;;;;;;9.38;4.85;;;6.60;99.90;;;;;;5115463;27;20387;-69
2023/03/17 06:02:22;;;;;;;7.63;4.90;;;6.60;99.90;;;;;;5104305;27;20599;-69
2023/03/17 06:04:47;;;;;;;8.55;5.07;;;6.70;99.90;;;;;;5112631;27;20122;-69
2023/03/17 06:07:13;;;;;;;7.65;4.75;;;6.70;99.90;;;;;;5105759;28;20379;-69
2023/03/17 06:09:39;;;;;;;7.35;4.90;;;6.70;99.90;;;;;;5116570;27;20041;-69
2023/03/17 06:12:05;;;;;;;6.47;4.63;;;6.80;99.90;;;;;;5105301;27;20039;-69
2023/03/17 06:14:31;;;;;;;6.05;4.28;;;6.80;99.90;;;;;;5106932;27;20374;-69
2023/03/17 06:16:57;;;;;;;7.53;4.50;;;6.80;99.90;;;;;;5104859;27;20102;-69
2023/03/17 06:19:22;;;;;;;8.73;5.13;;;6.90;99.90;;;;;;5108959;27;20375;-69
2023/03/17 06:21:48;;;;;;;9.45;4.88;;;6.90;99.90;;;;;;5093147;27;20027;-69
2023/03/17 06:24:14;;;;;;;7.85;5.10;;;6.90;99.90;;;;;;5115510;27;20039;-69
2023/03/17 06:26:40;;;;;;;8.45;4.65;;;7.00;99.90;;;;;;5093395;27;20835;-69
2023/03/17 06:29:08;;;;;;;6.03;4.43;;;7.10;99.90;;;;;;5121491;27;20127;-69
2023/03/17 06:31:35;;;;;;;6.95;4.82;;;7.10;99.90;;;;;;5085513;27;20434;-69
2023/03/17 06:34:02;;;;;;;7.43;4.50;;;7.10;99.90;;;;;;5094761;28;20043;-69
2023/03/17 06:36:28;;;;;;;7.78;4.93;;;7.10;99.90;;;;;;5105468;27;20050;-69
2023/03/17 06:38:53;;;;;;;6.57;4.70;;;7.10;99.90;;;;;;5100915;27;20043;-69
2023/03/17 06:41:19;;;;;;;8.48;4.85;;;7.20;99.90;;;;;;5105145;27;20035;-69
2023/03/17 06:43:45;;;;;;;6.68;4.93;;;7.20;99.90;;;;;;5105772;27;20031;-69
2023/03/17 06:46:10;;;;;;;7.50;4.60;;;7.30;99.90;;;;;;5105911;27;20474;-69
2023/03/17 06:48:37;;;;;;;8.68;4.90;;;7.30;99.90;;;;;;5106484;27;20070;-69
2023/03/17 06:51:02;;;;;;;6.65;4.70;;;7.30;99.90;;;;;;5106355;27;20055;-69
2023/03/17 06:53:28;;;;;;;10.05;5.10;;;7.30;99.90;;;;;;5103947;27;20118;-69
2023/03/17 06:55:55;;;;;;;8.25;4.90;;;7.40;99.90;;;;;;5109423;27;20050;-68
2023/03/17 06:58:20;;;;;;;10.57;5.07;;;7.40;99.90;;;;;;5102955;27;20074;-69
2023/03/17 07:00:47;;;;;;;8.73;5.40;;;7.40;99.90;;;;;;5104271;27;20049;-68
2023/03/17 07:03:14;;;;;;;9.70;5.28;;;7.50;99.90;;;;;;5120404;27;20048;-68
2023/03/17 07:05:40;;;;;;;6.85;4.85;;;7.50;99.90;;;;;;5105119;27;20064;-68
2023/03/17 07:08:06;;;;;;;7.30;4.70;;;7.50;99.90;;;;;;5104370;27;20122;-68
2023/03/17 07:10:32;;;;;;;9.45;5.05;;;7.50;99.90;;;;;;5103551;27;20451;-68
2023/03/17 07:12:58;;;;;;;7.68;5.15;;;7.50;99.90;;;;;;5104441;27;20154;-69
2023/03/17 07:15:23;;;;;;;7.40;5.15;;;7.50;99.90;;;;;;5102842;27;20394;-68
2023/03/17 07:17:49;;;;;;;10.00;5.47;;;7.50;99.90;;;;;;5105877;27;20366;-68
2023/03/17 07:20:15;;;;;;;9.27;4.85;;;7.60;99.90;;;;;;5084980;27;20035;-69
2023/03/17 07:22:41;;;;;;;9.10;5.00;;;7.60;99.90;;;;;;5101288;27;20478;-69
2023/03/17 07:25:08;;;;;;;9.75;4.95;;;7.60;99.90;;;;;;5106316;27;20044;-68
2023/03/17 07:27:34;;;;;;;8.40;4.57;;;7.60;99.90;;;;;;5101531;27;20047;-69
2023/03/17 07:30:03;;;;;;;10.30;5.03;;;7.70;99.90;;;;;;5106056;27;20039;-69
2023/03/17 07:32:29;;;;;;;9.07;5.22;;;7.80;99.90;;;;;;5107836;27;20565;-69
2023/03/17 07:34:55;;;;;;;7.72;4.82;;;7.90;99.90;;;;;;5102059;27;20039;-69
2023/03/17 07:37:22;;;;;;;12.18;5.25;;;7.90;99.90;;;;;;5109139;27;20043;-68
2023/03/17 07:39:47;;;;;;;8.77;5.10;;;8.10;99.90;;;;;;5105989;28;20039;-69
2023/03/17 07:42:14;;;;;;;8.55;4.90;;;8.10;99.90;;;;;;5102131;27;20039;-68
2023/03/17 07:44:40;;;;;;;8.50;4.57;;;8.20;99.90;;;;;;5103893;27;20038;-68
2023/03/17 07:47:07;;;;;;;6.75;4.68;;;8.30;99.90;;;;;;5100618;27;20035;-68
2023/03/17 07:49:33;;;;;;;7.10;4.88;;;8.40;99.90;;;;;;5105274;28;20046;-68
2023/03/17 07:51:59;;;;;;;7.43;4.45;;;8.40;99.90;;;;;;5102010;27;20050;-69
2023/03/17 07:54:26;;;;;;;8.20;5.00;;;8.50;99.90;;;;;;5104312;28;20035;-69
2023/03/17 07:56:52;;;;;;;8.02;5.05;;;8.60;99.90;;;;;;5103884;27;20152;-69
2023/03/17 07:59:18;;;;;;;8.05;5.25;;;8.60;99.90;;;;;;5106381;27;20039;-69
2023/03/17 08:01:43;;;;;;;7.47;4.80;;;8.70;99.90;;;;;;5107943;27;20042;-69
2023/03/17 08:04:11;;;;;;;6.03;4.75;;;8.80;99.90;;;;;;5107195;27;20046;-69
2023/03/17 08:06:41;;;;;;;7.75;4.88;;;8.90;99.90;;;;;;5111226;27;20073;-70
2023/03/17 08:09:07;;;;;;;8.43;5.28;;;9.00;99.90;;;;;;5107893;27;20035;-69
2023/03/17 08:11:34;;;;;;;7.05;5.13;;;9.20;99.90;;;;;;5093806;27;20039;-69
2023/03/17 08:14:01;;;;;;;6.60;4.63;;;9.30;99.90;;;;;;5106742;27;20039;-68
2023/03/17 08:16:27;;;;;;;7.32;5.22;;;9.30;99.90;;;;;;5111723;27;20099;-69
2023/03/17 08:18:54;;;;;;;10.20;5.10;;;9.40;99.90;;;;;;5101152;27;20051;-69
2023/03/17 08:21:19;;;;;;;7.18;4.90;;;9.50;99.90;;;;;;5107824;27;20354;-69
2023/03/17 08:23:45;;;;;;;7.70;4.70;;;9.50;99.90;;;;;;5105557;27;20050;-70
2023/03/17 08:26:13;;;;;;;6.95;4.90;;;9.50;99.90;;;;;;5108465;27;20046;-69
2023/03/17 08:28:39;;;;;;;7.00;5.03;;;9.60;99.90;;;;;;5108256;27;20126;-69
2023/03/17 08:31:13;;;;;;;7.18;4.78;;;9.60;99.90;;;;;;5105895;27;20130;-69
2023/03/17 08:33:41;;;;;;;6.93;4.93;;;9.70;99.90;;;;;;5104377;27;20031;-69
2023/03/17 08:36:08;;;;;;;7.45;5.10;;;9.70;99.90;;;;;;5108760;27;20040;-69
2023/03/17 08:38:36;;;;;;;8.20;5.10;;;9.70;99.90;;;;;;5125460;27;20047;-69
2023/03/17 08:41:04;;;;;;;8.68;5.18;;;9.80;99.90;;;;;;5108231;27;20074;-69
2023/03/17 08:43:30;;;;;;;6.88;4.97;;;9.80;99.90;;;;;;5107800;27;20439;-69
2023/03/17 08:46:03;;;;;;;7.85;4.95;;;9.90;99.90;;;;;;5105366;27;20031;-69
2023/03/17 08:48:29;;;;;;;8.75;5.20;;;9.90;99.90;;;;;;5108221;27;20042;-69
2023/03/17 08:50:55;;;;;;;7.40;5.13;;;9.90;99.90;;;;;;5107978;27;20080;-69
2023/03/17 08:53:20;;;;;;;6.63;5.18;;;10.00;99.90;;;;;;5107147;27;20050;-69
2023/03/17 08:55:46;;;;;;;8.23;5.30;;;10.00;99.90;;;;;;5107396;27;20066;-69
2023/03/17 08:58:12;;;;;;;7.60;4.75;;;10.00;99.90;;;;;;5119007;27;20043;-69
2023/03/17 09:00:37;;;;;;;9.43;4.93;;;10.10;99.90;;;;;;5112922;27;20087;-69
2023/03/17 09:03:04;;;;;;;8.57;5.20;;;10.30;99.90;;;;;;5110399;27;20043;-69
2023/03/17 09:05:30;;;;;;;8.40;4.90;;;10.40;99.90;;;;;;5115887;27;20043;-69
2023/03/17 09:07:56;;;;;;;7.95;4.63;;;10.50;99.90;;;;;;5113806;27;20043;-69
2023/03/17 09:10:22;;;;;;;11.23;4.70;;;10.60;99.90;;;;;;5115191;27;20528;-70
2023/03/17 09:12:50;;;;;;;6.93;4.43;;;10.60;99.90;;;;;;5114771;27;20043;-70
2023/03/17 09:15:16;;;;;;;6.88;4.60;;;10.70;99.90;;;;;;5116237;27;20040;-69
2023/03/17 09:17:42;;;;;;;7.18;4.82;;;10.80;99.90;;;;;;5114709;27;20152;-70
2023/03/17 09:20:12;;;;;;;8.57;5.05;;;10.80;99.90;;;;;;5101781;28;20143;-70
2023/03/17 09:22:38;;;;;;;6.10;4.35;;;10.90;99.90;;;;;;5105848;27;20039;-70
2023/03/17 09:25:04;;;;;;;8.23;4.70;;;10.90;99.90;;;;;;5105498;27;20561;-70
2023/03/17 09:27:29;;;;;;;8.43;4.90;;;11.00;99.90;;;;;;5105621;27;20038;-70
2023/03/17 09:29:55;;;;;;;8.45;4.38;;;11.10;99.90;;;;;;5097172;27;20188;-69
2023/03/17 09:32:21;;;;;;;6.93;4.72;;;11.20;99.90;;;;;;5093094;27;20078;-70
2023/03/17 09:34:47;;;;;;;6.78;4.60;;;11.30;99.90;;;;;;5110372;27;20164;-70
2023/03/17 09:37:12;;;;;;;7.38;4.68;;;11.40;99.90;;;;;;5114197;27;20122;-69
2023/03/17 09:39:38;;;;;;;7.90;5.10;;;11.50;99.90;;;;;;5105773;27;20038;-70
2023/03/17 09:42:25;;;;;;;7.88;4.70;;;11.60;99.90;;;;;;5111465;27;20035;-70
2023/03/17 09:45:11;;;;;;;9.18;5.25;;;11.70;99.90;;;;;;5121115;27;20042;-69
2023/03/17 09:48:14;;;;;;;6.72;4.45;;;11.80;99.90;;;;;;5104245;27;20039;-69
2023/03/17 09:50:59;;;;;;;8.95;5.03;;;12.00;99.90;;;;;;5105493;27;20043;-70
2023/03/17 09:53:32;;;;;;;7.50;4.65;;;12.10;99.90;;;;;;5109885;27;20035;-69
2023/03/17 09:56:03;;;;;;;10.18;5.10;;;12.30;99.90;;;;;;5111241;27;20533;-70
2023/03/17 09:58:32;;;;;;;9.20;5.32;;;12.40;99.90;;;;;;5109300;27;20043;-69
2023/03/17 10:00:58;;;;;;;9.23;5.00;;;12.50;99.90;;;;;;5106416;27;20096;-69
2023/03/17 10:03:25;;;;;;;6.60;5.03;;;12.60;99.90;;;;;;5111526;27;20126;-69
2023/03/17 10:05:50;;;;;;;7.38;5.22;;;12.70;99.90;;;;;;5105518;27;20031;-70
2023/03/17 10:08:25;;;;;;;12.40;5.03;;;12.80;99.90;;;;;;5102605;27;20035;-69
2023/03/17 10:11:08;;;;;;;7.13;5.18;;;13.00;99.90;;;;;;5095265;27;20070;-70
2023/03/17 10:13:56;;;;;;;7.35;4.85;;;13.10;99.90;;;;;;5109964;27;20043;-69
2023/03/17 10:16:41;;;;;;;7.63;5.38;;;13.20;99.90;;;;;;5091405;27;20031;-71
2023/03/17 10:19:19;;;;;;;8.38;5.45;;;13.30;99.90;;;;;;5109998;27;20035;-70
2023/03/17 10:21:57;;;;;;;8.27;5.70;;;13.40;99.90;;;;;;5104331;28;20044;-72
2023/03/17 10:24:24;;;;;;;9.85;4.80;;;13.50;99.90;;;;;;5106154;27;20038;-71
2023/03/17 10:26:52;;;;;;;7.10;4.95;;;13.50;99.90;;;;;;5127031;27;20031;-70
2023/03/17 10:29:22;;;;;;;8.40;5.18;;;13.60;99.90;;;;;;5107813;27;20046;-69
2023/03/17 10:31:49;;;;;;;9.63;5.10;;;13.70;99.90;;;;;;5108828;27;20040;-71
2023/03/17 10:34:16;;;;;;;11.25;5.07;;;13.80;99.90;;;;;;5112728;27;20049;-71
2023/03/17 10:36:50;;;;;;;9.43;5.47;;;13.90;99.90;;;;;;5110576;27;20045;-70
2023/03/17 10:39:20;;;;;;;7.20;5.03;;;14.00;99.90;;;;;;5102879;27;20118;-70
2023/03/17 10:42:20;;;;;;;8.82;5.47;;;14.20;99.90;;;;;;5110946;27;20046;-70
2023/03/17 10:45:00;;;;;;;8.32;5.88;;;14.30;99.90;;;;;;5108939;27;20031;-70
2023/03/17 10:47:32;;;;;;;10.10;6.20;;;14.30;99.90;;;;;;5124641;27;20543;-70
2023/03/17 10:50:16;;;;;;;8.40;5.72;;;14.40;99.90;;;;;;5103943;27;20047;-70
2023/03/17 10:52:45;;;;;;;7.65;5.75;;;14.50;99.90;;;;;;5109637;27;20038;-70
2023/03/17 10:55:14;;;;;;;8.93;5.57;;;14.70;99.90;;;;;;5110784;27;20035;-70
2023/03/17 10:57:52;;;;;;;8.32;5.30;;;14.80;99.90;;;;;;5103527;27;20176;-71
2023/03/17 11:00:19;;;;;;;8.02;5.75;;;15.00;99.90;;;;;;5109011;27;20031;-70
2023/03/17 11:02:56;;;;;;;8.85;6.07;;;15.10;99.90;;;;;;5110286;27;20060;-70
2023/03/17 11:05:26;;;;;;;7.72;5.40;;;15.20;99.90;;;;;;5114140;27;20027;-70
2023/03/17 11:08:05;;;;;;;6.88;5.00;;;15.20;99.90;;;;;;5109187;27;20027;-70
2023/03/17 11:10:36;;;;;;;8.45;5.50;;;15.20;99.90;;;;;;5109221;27;20035;-70
2023/03/17 11:13:01;;;;;;;9.13;5.95;;;15.20;99.90;;;;;;5104549;28;20039;-71
2023/03/17 11:16:02;;;;;;;8.57;5.03;;;15.30;99.90;;;;;;5105366;27;20039;-70
2023/03/17 11:18:36;;;;;;;9.75;5.93;;;15.30;99.90;;;;;;5081835;27;20062;-70
2023/03/17 11:21:10;;;;;;;8.70;5.45;;;15.30;99.90;;;;;;5101864;27;20051;-69
2023/03/17 11:23:42;;;;;;;7.45;5.22;;;15.40;99.90;;;;;;5105545;27;20058;-68
2023/03/17 11:26:36;;;;;;;10.02;6.45;;;15.10;99.90;;;;;;5101229;27;20039;-69
2023/03/17 11:29:19;;;;;;;8.95;5.65;;;15.00;99.90;;;;;;5107509;27;20043;-69
2023/03/17 11:31:59;;;;;;;9.65;6.05;;;14.90;99.90;;;;;;5102615;27;20047;-70
2023/03/17 11:34:38;;;;;;;9.77;6.30;;;14.90;99.90;;;;;;5103066;27;20070;-69
2023/03/17 11:37:15;;;;;;;11.68;6.38;;;14.80;99.90;;;;;;5101656;27;20045;-67
2023/03/17 11:40:01;;;;;;;10.30;6.10;;;14.80;99.90;;;;;;5108347;27;20549;-68
2023/03/17 11:43:11;;;;;;;9.88;6.13;;;14.80;99.90;;;;;;5105841;27;20058;-68
2023/03/17 11:45:50;;;;;;;8.95;5.53;;;14.80;99.90;;;;;;5079091;27;20062;-68
2023/03/17 11:48:26;;;;;;;10.52;6.20;;;14.90;99.90;;;;;;5095344;28;20040;-68
2023/03/17 11:51:05;;;;;;;9.43;6.07;;;15.00;99.90;;;;;;5109441;28;20028;-68
2023/03/17 11:53:54;;;;;;;9.38;6.10;;;15.00;99.90;;;;;;5101451;28;20035;-68
2023/03/17 11:56:32;;;;;;;8.00;6.38;;;14.80;99.90;;;;;;5110655;27;20039;-68
2023/03/17 11:59:15;;;;;;;9.35;5.90;;;14.80;99.90;;;;;;5109372;28;20126;-69
2023/03/17 12:01:57;;;;;;;10.10;6.57;;;14.90;99.90;;;;;;5109479;28;20082;-68
2023/03/17 12:04:33;;;;;;;9.93;6.47;;;15.10;99.90;;;;;;5093399;28;20040;-68
2023/03/17 12:07:07;;;;;;;11.55;6.30;;;15.30;99.90;;;;;;5093107;27;20277;-68
2023/03/17 12:09:44;;;;;;;8.50;5.70;;;15.20;99.90;;;;;;5093829;28;20044;-68
2023/03/17 12:12:12;;;;;;;8.68;5.95;;;15.20;99.90;;;;;;5094488;28;20126;-68
2023/03/17 12:14:47;;;;;;;9.48;5.90;;;15.10;99.90;;;;;;5077942;28;20474;-69
2023/03/17 12:17:29;;;;;;;10.57;6.75;;;15.10;99.90;;;;;;5108804;28;20036;-68
2023/03/17 12:20:08;;;;;;;10.32;6.05;;;15.20;99.90;;;;;;5093560;28;20127;-68
2023/03/17 12:22:51;;;;;;;8.10;6.15;;;15.20;99.90;;;;;;5094011;28;20043;-68
2023/03/17 12:25:26;;;;;;;8.23;6.13;;;15.30;99.90;;;;;;5110174;28;20441;-68
2023/03/17 12:28:09;;;;;;;8.25;6.32;;;15.20;99.90;;;;;;5103110;28;20031;-68
2023/03/17 12:31:06;;;;;;;9.25;6.00;;;15.30;99.90;;;;;;5094603;28;20043;-68
2023/03/17 12:33:48;;;;;;;7.95;5.93;;;15.30;99.90;;;;;;5110883;28;20393;-68
2023/03/17 12:36:15;;;;;;;13.60;6.43;;;15.30;99.90;;;;;;5115300;28;20034;-69
2023/03/17 12:38:51;;;;;;;8.90;6.70;;;15.40;99.90;;;;;;5112519;28;20574;-68
2023/03/17 12:41:23;;;;;;;10.55;6.30;;;15.50;99.90;;;;;;5107889;28;20043;-68
2023/03/17 12:44:13;;;;;;;9.35;5.90;;;15.70;99.90;;;;;;5108465;28;20039;-69
2023/03/17 12:47:00;;;;;;;9.93;6.13;;;15.80;99.90;;;;;;5099930;27;20493;-69
2023/03/17 12:49:36;;;;;;;8.85;6.50;;;15.90;99.90;;;;;;5117096;27;20074;-68
2023/03/17 12:52:17;;;;;;;10.48;6.30;;;16.00;99.90;;;;;;5117340;27;20122;-68
2023/03/17 12:54:50;;;;;;;9.65;6.65;;;16.10;99.90;;;;;;5118936;27;20043;-68
2023/03/17 12:57:38;;;;;;;12.40;7.25;;;16.20;99.90;;;;;;5100402;28;20047;-68
2023/03/17 13:00:28;;;;;;;10.65;6.35;;;16.30;99.90;;;;;;5082261;27;20050;-68
2023/03/17 13:03:23;;;;;;;11.63;6.65;;;16.10;99.90;;;;;;5088405;28;20085;-69